Time;durP1;ratioP1;P1;durP2;ratioP2;P2;SDS_P1;SDS_P2;PMS_P1;PMS_P2;Temp;Humidity;BMP_temperature;BMP_pressure;BME280_temperature;BME280_humidity;BME280_pressure;Samples;Min_cycle;Max_cycle;Signal;HPM_P1;HPM_P2
2023/05/09 00:01:30;;;;;;;13.23;12.25;;;;;;;14.77;100.00;98836.09;4121271;28;20207;-44
2023/05/09 00:03:32;;;;;;;12.45;11.60;;;;;;;14.73;100.00;98837.75;4107447;28;21230;-46
2023/05/09 00:05:33;;;;;;;10.90;10.13;;;;;;;14.69;100.00;98839.38;4119532;28;20244;-46
2023/05/09 00:07:35;;;;;;;10.60;9.68;;;;;;;14.65;100.00;98837.44;4119892;28;20237;-47
2023/05/09 00:09:37;;;;;;;10.45;9.75;;;;;;;14.64;100.00;98844.06;4121139;28;20265;-44
2023/05/09 00:11:38;;;;;;;10.95;10.23;;;;;;;14.65;100.00;98848.47;4123106;28;20214;-44
2023/05/09 00:13:40;;;;;;;11.88;11.10;;;;;;;14.68;100.00;98847.91;4120023;28;20249;-44
2023/05/09 00:15:43;;;;;;;10.43;9.63;;;;;;;14.68;100.00;98843.25;4123771;28;20280;-44
2023/05/09 00:17:45;;;;;;;12.50;11.70;;;;;;;14.67;100.00;98836.06;4120620;28;20257;-45
2023/05/09 00:19:48;;;;;;;12.07;11.25;;;;;;;14.67;100.00;98830.56;4133905;28;20237;-44
2023/05/09 00:21:50;;;;;;;12.35;11.57;;;;;;;14.56;100.00;98828.84;4120319;28;20621;-44
2023/05/09 00:23:52;;;;;;;13.30;12.30;;;;;;;14.50;100.00;98829.91;4118935;28;20254;-43
2023/05/09 00:25:54;;;;;;;12.90;11.93;;;;;;;14.48;100.00;98823.84;4124249;28;20296;-44
2023/05/09 00:27:55;;;;;;;12.43;11.63;;;;;;;14.46;100.00;98820.56;4120024;28;20293;-44
2023/05/09 00:29:57;;;;;;;11.43;10.73;;;;;;;14.39;100.00;98817.22;4119851;28;20269;-44
2023/05/09 00:31:59;;;;;;;11.05;10.30;;;;;;;14.37;100.00;98808.38;4124254;28;20814;-44
2023/05/09 00:34:00;;;;;;;13.18;12.27;;;;;;;14.42;100.00;98815.84;4123945;28;20230;-44
2023/05/09 00:36:03;;;;;;;11.60;10.80;;;;;;;14.44;100.00;98803.44;4107918;28;20211;-45
2023/05/09 00:38:04;;;;;;;11.70;10.98;;;;;;;14.35;100.00;98810.56;4136285;28;20247;-44
2023/05/09 00:40:08;;;;;;;11.35;10.65;;;;;;;14.34;100.00;98814.44;4123977;28;20288;-44
2023/05/09 00:42:09;;;;;;;11.05;10.20;;;;;;;14.33;100.00;98801.75;4122253;28;20213;-45
2023/05/09 00:44:11;;;;;;;12.40;11.50;;;;;;;14.29;100.00;98806.13;4122394;28;20565;-44
2023/05/09 00:46:13;;;;;;;11.00;10.20;;;;;;;14.27;100.00;98804.72;4123867;28;20720;-45
2023/05/09 00:48:15;;;;;;;12.00;11.10;;;;;;;14.21;100.00;98803.88;4127910;28;20715;-46
2023/05/09 00:50:17;;;;;;;11.43;10.50;;;;;;;14.16;100.00;98801.06;4135993;28;20759;-44
2023/05/09 00:52:22;;;;;;;11.45;10.73;;;;;;;14.13;100.00;98798.84;4125208;28;20315;-44
2023/05/09 00:54:24;;;;;;;12.23;10.93;;;;;;;14.12;100.00;98794.44;4136910;28;20232;-45
2023/05/09 00:56:26;;;;;;;11.95;11.00;;;;;;;14.12;100.00;98788.09;4136842;28;20296;-44
2023/05/09 00:58:28;;;;;;;12.93;12.02;;;;;;;14.08;100.00;98787.81;4119134;28;20217;-45
2023/05/09 01:00:31;;;;;;;10.93;10.13;;;;;;;14.09;100.00;98788.66;4124091;28;20288;-45
2023/05/09 01:02:32;;;;;;;11.13;10.32;;;;;;;14.08;100.00;98796.06;4122111;28;20216;-44
2023/05/09 01:04:34;;;;;;;11.15;10.30;;;;;;;14.09;100.00;98794.97;4120884;28;20210;-44
2023/05/09 01:06:40;;;;;;;15.00;10.15;;;;;;;14.12;100.00;98780.69;4123663;28;20297;-44
2023/05/09 01:08:44;;;;;;;10.45;9.65;;;;;;;14.13;100.00;98793.34;4135223;28;20241;-45
2023/05/09 01:10:55;;;;;;;12.13;11.25;;;;;;;14.06;100.00;98789.16;4139278;28;20229;-44
2023/05/09 01:13:11;;;;;;;11.05;10.35;;;;;;;14.04;100.00;98783.91;4127163;28;20245;-44
2023/05/09 01:15:33;;;;;;;10.90;10.20;;;;;;;14.04;100.00;98786.66;4137650;28;20229;-44
2023/05/09 01:17:38;;;;;;;11.55;10.65;;;;;;;14.07;100.00;98782.56;4125692;28;20210;-45
2023/05/09 01:19:55;;;;;;;11.40;10.60;;;;;;;14.10;100.00;98784.78;4138561;28;20291;-44
2023/05/09 01:21:58;;;;;;;11.68;10.63;;;;;;;14.22;100.00;98780.75;4122674;28;20209;-44
2023/05/09 01:24:21;;;;;;;12.65;11.63;;;;;;;14.19;100.00;98778.56;4106176;28;20282;-44
2023/05/09 01:26:32;;;;;;;12.73;11.75;;;;;;;14.21;100.00;98770.84;4106137;28;20294;-44
2023/05/09 01:28:59;;;;;;;16.23;11.52;;;;;;;14.11;100.00;98769.94;4123153;28;20690;-44
2023/05/09 01:31:02;;;;;;;12.27;11.48;;;;;;;14.06;100.00;98762.50;4122204;28;20397;-44
2023/05/09 01:33:06;;;;;;;12.55;11.65;;;;;;;14.04;100.00;98759.16;4122096;28;20210;-45
2023/05/09 01:35:12;;;;;;;11.55;10.80;;;;;;;14.00;100.00;98763.53;4122704;28;20230;-45
2023/05/09 01:37:15;;;;;;;10.75;10.05;;;;;;;14.01;100.00;98765.19;4123458;28;20400;-44
2023/05/09 01:39:17;;;;;;;10.45;9.75;;;;;;;14.04;100.00;98761.91;4123970;28;20214;-45
2023/05/09 01:41:21;;;;;;;12.07;11.35;;;;;;;14.09;100.00;98767.44;4110950;28;20198;-44
2023/05/09 01:43:24;;;;;;;10.52;9.82;;;;;;;14.02;100.00;98766.84;4121672;28;20653;-45
2023/05/09 01:45:27;;;;;;;11.02;10.05;;;;;;;14.02;100.00;98768.75;4136716;28;20659;-44
2023/05/09 01:47:28;;;;;;;11.40;10.23;;;;;;;14.07;100.00;98764.13;4127199;28;20968;-45
2023/05/09 01:49:31;;;;;;;11.15;10.45;;;;;;;14.13;100.00;98763.06;4105388;28;20234;-44
2023/05/09 01:51:34;;;;;;;11.23;10.43;;;;;;;14.07;100.00;98755.88;4106843;28;20211;-45
2023/05/09 01:53:35;;;;;;;10.15;9.55;;;;;;;14.08;100.00;98762.19;4122455;28;20214;-44
2023/05/09 01:55:38;;;;;;;12.20;11.30;;;;;;;14.07;100.00;98758.63;4124666;28;20340;-45
2023/05/09 01:57:41;;;;;;;10.95;10.15;;;;;;;13.98;100.00;98762.97;4120017;28;20234;-44
2023/05/09 01:59:43;;;;;;;10.35;9.65;;;;;;;13.96;100.00;98762.41;4109501;28;20258;-45
2023/05/09 02:01:45;;;;;;;12.57;11.68;;;;;;;13.97;100.00;98764.06;4111176;28;20249;-44
2023/05/09 02:03:51;;;;;;;12.00;11.15;;;;;;;13.98;100.00;98768.47;4120966;28;20297;-45
2023/05/09 02:05:54;;;;;;;10.68;9.23;;;;;;;14.02;100.00;98772.34;4126386;28;20207;-45
2023/05/09 02:07:57;;;;;;;10.90;10.20;;;;;;;14.05;100.00;98762.75;4109718;28;20948;-44
2023/05/09 02:09:59;;;;;;;10.38;9.68;;;;;;;14.04;100.00;98759.16;4121932;28;20246;-44
2023/05/09 02:12:03;;;;;;;12.30;11.45;;;;;;;14.11;100.00;98765.25;4119085;28;22442;-44
2023/05/09 02:14:05;;;;;;;11.05;10.15;;;;;;;14.04;100.00;98759.16;4120869;28;20206;-45
2023/05/09 02:16:07;;;;;;;11.57;10.60;;;;;;;14.04;100.00;98756.41;4105628;28;20653;-44
2023/05/09 02:18:08;;;;;;;11.07;10.38;;;;;;;14.06;100.00;98756.97;4122965;28;20245;-45
2023/05/09 02:20:10;;;;;;;11.18;10.43;;;;;;;14.11;100.00;98751.47;4120850;28;20225;-44
2023/05/09 02:22:12;;;;;;;11.82;11.05;;;;;;;14.16;100.00;98754.28;4137206;28;20209;-44
2023/05/09 02:24:14;;;;;;;10.52;9.52;;;;;;;14.09;100.00;98756.44;4123417;28;20226;-45
2023/05/09 02:26:16;;;;;;;11.20;10.50;;;;;;;14.03;100.00;98752.00;4125408;28;20217;-44
2023/05/09 02:28:18;;;;;;;10.75;9.85;;;;;;;14.04;100.00;98748.16;4111156;28;20215;-45
2023/05/09 02:30:24;;;;;;;11.70;10.90;;;;;;;14.12;100.00;98755.91;4123883;28;20237;-44
2023/05/09 02:32:28;;;;;;;13.27;12.20;;;;;;;13.97;100.00;98753.06;4126498;28;20272;-46
2023/05/09 02:34:30;;;;;;;10.77;10.07;;;;;;;14.01;100.00;98748.69;4136381;28;20225;-44
2023/05/09 02:36:31;;;;;;;12.23;10.13;;;;;;;14.05;100.00;98748.97;4120129;28;20238;-45
2023/05/09 02:38:34;;;;;;;11.38;10.63;;;;;;;14.07;100.00;98747.63;4136786;28;20609;-45
2023/05/09 02:40:36;;;;;;;11.32;10.27;;;;;;;14.08;100.00;98751.19;4136164;28;20225;-44
2023/05/09 02:42:37;;;;;;;11.75;10.95;;;;;;;14.07;100.00;98746.78;4135008;28;20241;-44
2023/05/09 02:44:39;;;;;;;10.55;9.85;;;;;;;14.06;100.00;98745.97;4136694;28;20209;-45
2023/05/09 02:46:41;;;;;;;10.57;9.88;;;;;;;14.09;100.00;98748.19;4137660;28;20248;-44
2023/05/09 02:48:43;;;;;;;10.80;10.10;;;;;;;14.08;100.00;98749.28;4134307;28;20217;-45
2023/05/09 02:50:45;;;;;;;11.40;10.60;;;;;;;14.07;100.00;98742.13;4138131;28;20249;-44
2023/05/09 02:52:47;;;;;;;12.35;11.35;;;;;;;13.99;100.00;98741.78;4136805;28;20667;-44
2023/05/09 02:54:48;;;;;;;10.98;10.27;;;;;;;13.95;100.00;98733.25;4126291;28;20275;-44
2023/05/09 02:56:50;;;;;;;11.30;10.52;;;;;;;13.86;100.00;98734.84;4106574;28;20215;-45
2023/05/09 02:58:52;;;;;;;11.25;10.45;;;;;;;13.93;100.00;98735.44;4134486;28;20206;-46
2023/05/09 03:00:54;;;;;;;11.20;10.45;;;;;;;13.98;100.00;98727.19;4110052;28;20249;-45
2023/05/09 03:02:55;;;;;;;10.77;10.07;;;;;;;13.89;100.00;98717.78;4128840;28;20214;-45
2023/05/09 03:04:57;;;;;;;9.88;9.18;;;;;;;13.90;100.00;98713.94;4122984;28;20302;-46
2023/05/09 03:06:59;;;;;;;9.82;9.23;;;;;;;13.93;100.00;98713.44;4135734;28;20667;-45
2023/05/09 03:09:01;;;;;;;10.20;9.55;;;;;;;13.96;100.00;98718.38;4127825;28;20209;-45
2023/05/09 03:11:03;;;;;;;9.68;8.50;;;;;;;14.00;100.00;98703.00;4119805;28;20318;-45
2023/05/09 03:13:04;;;;;;;9.70;9.02;;;;;;;14.04;100.00;98709.63;4120095;28;20205;-45
2023/05/09 03:15:07;;;;;;;12.05;11.27;;;;;;;13.95;100.00;98704.88;4126197;28;20238;-46
2023/05/09 03:17:09;;;;;;;10.23;9.52;;;;;;;13.91;100.00;98707.34;4138105;28;20210;-44
2023/05/09 03:19:11;;;;;;;11.02;10.25;;;;;;;13.95;100.00;98710.38;4121927;28;20617;-44
2023/05/09 03:21:13;;;;;;;10.43;9.63;;;;;;;13.96;100.00;98707.38;4128883;28;20845;-44
2023/05/09 03:23:15;;;;;;;10.85;10.10;;;;;;;14.00;100.00;98708.50;4120002;28;20206;-44
2023/05/09 03:25:16;;;;;;;11.07;10.27;;;;;;;13.88;100.00;98705.13;4119669;28;20207;-45
2023/05/09 03:27:18;;;;;;;11.25;10.23;;;;;;;13.62;100.00;98708.81;4121036;28;20218;-45
2023/05/09 03:29:20;;;;;;;13.23;12.35;;;;;;;13.59;100.00;98703.88;4108029;28;20270;-44
2023/05/09 03:31:22;;;;;;;10.93;10.13;;;;;;;13.59;100.00;98703.88;4138362;28;20210;-44
2023/05/09 03:33:24;;;;;;;11.35;10.57;;;;;;;13.66;100.00;98707.22;4124798;28;20260;-45
2023/05/09 03:35:26;;;;;;;10.82;10.13;;;;;;;13.67;100.00;98708.88;4124906;28;20230;-45
2023/05/09 03:37:28;;;;;;;9.90;9.23;;;;;;;13.80;100.00;98702.91;4109951;28;20214;-47
2023/05/09 03:39:30;;;;;;;11.95;11.07;;;;;;;13.79;100.00;98706.75;4119377;28;20238;-45
2023/05/09 03:41:34;;;;;;;10.60;9.73;;;;;;;13.74;100.00;98698.47;4123088;28;20210;-44
2023/05/09 03:43:36;;;;;;;11.52;10.80;;;;;;;13.74;100.00;98709.47;4105672;28;20319;-46
2023/05/09 03:45:38;;;;;;;10.43;9.63;;;;;;;13.77;100.00;98703.41;4120525;28;20202;-45
2023/05/09 03:47:40;;;;;;;10.27;9.57;;;;;;;13.80;100.00;98708.41;4122054;28;20220;-44
2023/05/09 03:49:42;;;;;;;10.25;9.52;;;;;;;13.86;100.00;98701.84;4101132;28;20278;-44
2023/05/09 03:51:44;;;;;;;9.52;8.82;;;;;;;13.91;100.00;98710.09;4120050;28;20642;-46
2023/05/09 03:53:50;;;;;;;11.65;10.95;;;;;;;14.06;100.00;98701.94;4121670;28;20300;-45
2023/05/09 03:55:51;;;;;;;11.23;10.43;;;;;;;14.00;100.00;98714.00;4121642;28;20264;-45
2023/05/09 03:57:54;;;;;;;10.77;10.07;;;;;;;14.05;100.00;98719.56;4107540;28;21131;-45
2023/05/09 03:59:55;;;;;;;11.63;10.82;;;;;;;13.95;100.00;98711.22;4106601;28;20695;-44
2023/05/09 04:01:57;;;;;;;11.80;11.00;;;;;;;13.92;100.00;98706.28;4137007;28;20277;-46
2023/05/09 04:03:59;;;;;;;11.57;10.77;;;;;;;13.93;100.00;98716.19;4120900;28;20235;-45
2023/05/09 04:06:01;;;;;;;11.13;10.05;;;;;;;13.96;100.00;98717.56;4123395;28;20216;-45
2023/05/09 04:08:03;;;;;;;11.73;10.73;;;;;;;13.97;100.00;98714.53;4123984;28;20313;-43
2023/05/09 04:10:06;;;;;;;10.80;10.00;;;;;;;14.01;100.00;98714.81;4135995;28;20257;-45
2023/05/09 04:12:08;;;;;;;11.43;10.63;;;;;;;14.02;100.00;98711.81;4123152;28;20234;-45
2023/05/09 04:14:09;;;;;;;14.77;13.68;;;;;;;13.91;100.00;98710.09;4135398;28;20214;-44
2023/05/09 04:16:11;;;;;;;16.88;15.57;;;;;;;13.86;100.00;98706.50;4108486;28;20718;-45
2023/05/09 04:18:13;;;;;;;19.15;16.75;;;;;;;13.90;100.00;98705.69;4124627;28;20216;-45
2023/05/09 04:20:15;;;;;;;16.80;13.65;;;;;;;13.94;100.00;98708.72;4123227;28;20267;-45
2023/05/09 04:22:16;;;;;;;14.75;13.65;;;;;;;13.92;100.00;98706.28;4126045;28;20212;-44
2023/05/09 04:24:25;;;;;;;15.07;13.98;;;;;;;13.95;100.00;98710.38;4121807;28;20238;-45
2023/05/09 04:26:27;;;;;;;14.40;13.40;;;;;;;14.01;100.00;98715.66;4117324;28;20268;-44
2023/05/09 04:28:29;;;;;;;13.57;12.27;;;;;;;13.95;100.00;98711.22;4106789;28;20242;-44
2023/05/09 04:30:30;;;;;;;13.07;12.07;;;;;;;13.95;100.00;98710.38;4121239;28;20307;-44
2023/05/09 04:32:32;;;;;;;11.40;10.60;;;;;;;13.97;100.00;98711.78;4117051;28;20210;-45
2023/05/09 04:34:34;;;;;;;13.18;11.82;;;;;;;14.00;100.00;98703.00;4116743;28;20217;-44
2023/05/09 04:36:36;;;;;;;12.20;11.05;;;;;;;14.09;100.00;98706.91;4103099;28;20627;-45
2023/05/09 04:38:38;;;;;;;11.95;11.05;;;;;;;14.08;100.00;98697.00;4100398;28;20219;-45
2023/05/09 04:40:39;;;;;;;12.93;12.02;;;;;;;14.04;100.00;98695.84;4101380;28;20318;-45
2023/05/09 04:42:42;;;;;;;13.75;12.55;;;;;;;14.12;100.00;98695.38;4116581;28;20385;-44
2023/05/09 04:44:44;;;;;;;13.77;12.77;;;;;;;14.09;100.00;98690.38;4120816;28;20210;-44
2023/05/09 04:46:45;;;;;;;18.60;13.32;;;;;;;14.10;100.00;98685.72;4121518;28;20349;-44
2023/05/09 04:48:47;;;;;;;13.77;12.80;;;;;;;14.02;100.00;98684.31;4122586;28;20238;-44
2023/05/09 04:50:49;;;;;;;12.95;11.93;;;;;;;14.05;100.00;98686.53;4102667;28;20226;-44
2023/05/09 04:52:51;;;;;;;14.55;13.43;;;;;;;14.01;100.00;98677.16;4122100;28;20281;-45
2023/05/09 04:54:53;;;;;;;13.45;12.38;;;;;;;13.87;100.00;98681.47;4118323;28;20206;-45
2023/05/09 04:56:54;;;;;;;13.07;12.15;;;;;;;14.02;100.00;98689.81;4101997;28;20203;-44
2023/05/09 04:59:10;;;;;;;12.65;11.48;;;;;;;13.99;100.00;98690.34;4122868;28;20205;-44
2023/05/09 05:01:12;;;;;;;13.38;12.45;;;;;;;13.98;100.00;98683.16;4122339;28;20244;-44
2023/05/09 05:03:14;;;;;;;14.48;13.40;;;;;;;14.00;100.00;98683.75;4121922;28;20217;-45
2023/05/09 05:05:16;;;;;;;19.63;13.63;;;;;;;14.01;100.00;98676.31;4107789;28;20857;-44
2023/05/09 05:07:18;;;;;;;15.30;13.82;;;;;;;13.97;100.00;98678.75;4120059;28;20210;-44
2023/05/09 05:09:20;;;;;;;16.95;15.40;;;;;;;13.97;100.00;98665.00;4117524;28;20304;-44
2023/05/09 05:11:22;;;;;;;18.85;17.08;;;;;;;13.94;100.00;98671.06;4130872;28;20243;-46
2023/05/09 05:13:23;;;;;;;16.30;15.10;;;;;;;14.00;100.00;98658.16;4100965;28;20715;-44
2023/05/09 05:15:25;;;;;;;13.32;12.23;;;;;;;13.99;100.00;98662.84;4103320;28;20721;-45
2023/05/09 05:17:28;;;;;;;16.73;15.00;;;;;;;13.84;100.00;98664.69;4120471;28;20217;-44
2023/05/09 05:19:33;;;;;;;18.73;14.68;;;;;;;13.89;100.00;98661.97;4134445;28;20279;-43
2023/05/09 05:21:37;;;;;;;17.90;16.40;;;;;;;13.90;100.00;98666.38;4103205;28;20218;-45
2023/05/09 05:23:43;;;;;;;16.73;15.18;;;;;;;13.96;100.00;98674.38;4120389;28;20218;-44
2023/05/09 05:25:47;;;;;;;19.65;18.00;;;;;;;13.90;100.00;98669.94;4113716;28;20280;-44
2023/05/09 05:27:49;;;;;;;18.17;16.38;;;;;;;14.04;100.00;98668.34;4120113;28;20217;-45
2023/05/09 05:29:51;;;;;;;19.80;17.88;;;;;;;13.87;100.00;98662.22;4121239;28;20226;-44
2023/05/09 05:31:53;;;;;;;20.23;18.17;;;;;;;13.89;100.00;98656.47;4118401;28;20219;-44
2023/05/09 05:33:55;;;;;;;18.75;16.85;;;;;;;13.91;100.00;98665.25;4116482;28;20620;-44
2023/05/09 05:35:56;;;;;;;20.90;18.95;;;;;;;13.98;100.00;98655.66;4123255;28;20603;-44
2023/05/09 05:37:59;;;;;;;23.05;19.52;;;;;;;13.96;100.00;98660.59;4123476;28;20339;-45
2023/05/09 05:40:00;;;;;;;21.33;19.20;;;;;;;13.98;100.00;98650.16;4121117;28;20230;-45
2023/05/09 05:42:02;;;;;;;24.20;19.08;;;;;;;13.97;100.00;98662.25;4121466;28;20650;-44
2023/05/09 05:44:04;;;;;;;35.85;21.80;;;;;;;13.91;100.00;98665.25;4102682;28;20263;-45
2023/05/09 05:46:09;;;;;;;27.77;19.73;;;;;;;13.91;100.00;98657.00;4138255;28;20207;-45
2023/05/09 05:48:11;;;;;;;27.30;21.25;;;;;;;13.89;100.00;98660.03;4126853;28;20591;-44
2023/05/09 05:50:13;;;;;;;30.67;23.13;;;;;;;13.82;100.00;98656.69;4136051;28;20233;-45
2023/05/09 05:52:14;;;;;;;30.00;22.77;;;;;;;13.82;100.00;98661.34;4108787;28;20752;-44
2023/05/09 05:54:16;;;;;;;30.90;22.48;;;;;;;13.86;100.00;98656.97;4124222;28;20210;-45
2023/05/09 05:56:18;;;;;;;31.63;22.13;;;;;;;13.83;100.00;98663.03;4119844;28;20237;-44
2023/05/09 05:58:20;;;;;;;45.55;25.50;;;;;;;13.74;100.00;98653.59;4105131;28;20238;-47
2023/05/09 06:00:21;;;;;;;46.50;25.63;;;;;;;13.75;100.00;98647.00;4120120;28;20274;-46
2023/05/09 06:02:23;;;;;;;50.58;26.83;;;;;;;13.79;100.00;98651.72;4107808;28;20207;-49
2023/05/09 06:04:26;;;;;;;43.28;25.02;;;;;;;13.77;100.00;98644.84;4127538;28;20208;-48
2023/05/09 06:06:28;;;;;;;43.17;25.98;;;;;;;13.84;100.00;98637.97;4128872;28;20206;-50
2023/05/09 06:08:30;;;;;;;35.90;24.63;;;;;;;13.88;100.00;98638.28;4121272;28;20324;-47
2023/05/09 06:10:32;;;;;;;34.28;26.48;;;;;;;13.89;100.00;98632.50;4137185;28;20263;-49
2023/05/09 06:12:34;;;;;;;28.98;24.27;;;;;;;14.06;100.00;98635.91;4136658;28;20265;-48
2023/05/09 06:14:36;;;;;;;35.53;24.38;;;;;;;14.02;100.00;98640.28;4128444;28;20218;-49
2023/05/09 06:16:38;;;;;;;34.90;24.77;;;;;;;14.02;100.00;98640.28;4126969;28;20309;-46
2023/05/09 06:18:39;;;;;;;29.67;23.63;;;;;;;14.03;100.00;98636.41;4137021;28;20225;-50
2023/05/09 06:20:41;;;;;;;32.33;24.73;;;;;;;14.15;100.00;98627.94;4136357;28;20263;-48
2023/05/09 06:22:43;;;;;;;28.08;24.00;;;;;;;14.20;100.00;98634.31;4110361;28;20217;-47
2023/05/09 06:24:45;;;;;;;26.10;23.15;;;;;;;14.36;100.00;98629.69;4125572;28;20206;-48
2023/05/09 06:26:49;;;;;;;25.30;22.92;;;;;;;14.42;100.00;98628.63;4120626;28;20226;-47
2023/05/09 06:28:50;;;;;;;28.98;22.77;;;;;;;14.46;100.00;98625.03;4118355;28;20218;-48
2023/05/09 06:30:52;;;;;;;23.77;21.35;;;;;;;14.46;100.00;98619.53;4118441;28;20659;-49
2023/05/09 06:32:54;;;;;;;23.75;20.75;;;;;;;14.48;100.00;98622.00;4120384;28;20264;-51
2023/05/09 06:34:56;;;;;;;24.02;21.73;;;;;;;14.55;100.00;98615.13;4120328;28;20230;-47
2023/05/09 06:36:58;;;;;;;24.65;21.80;;;;;;;14.67;100.00;98615.72;4134739;28;20359;-45
2023/05/09 06:39:00;;;;;;;24.17;21.45;;;;;;;14.66;100.00;98614.06;4123515;28;20210;-45
2023/05/09 06:41:02;;;;;;;22.27;20.15;;;;;;;14.74;100.00;98616.25;4135121;28;20232;-45
2023/05/09 06:43:03;;;;;;;25.52;20.00;;;;;;;14.81;100.00;98616.81;4137376;28;20205;-46
2023/05/09 06:45:06;;;;;;;20.13;18.15;;;;;;;14.86;100.00;98608.56;4106691;28;20740;-45
2023/05/09 06:47:08;;;;;;;23.95;21.60;;;;;;;14.93;100.00;98611.88;4123023;28;20619;-45
2023/05/09 06:49:12;;;;;;;21.67;19.58;;;;;;;15.05;100.00;98606.91;4120553;28;20218;-44
2023/05/09 06:51:15;;;;;;;20.65;18.75;;;;;;;15.02;100.00;98607.44;4108050;28;20562;-46
2023/05/09 06:53:17;;;;;;;20.55;18.65;;;;;;;15.02;100.00;98596.41;4120363;28;20550;-44
2023/05/09 06:55:18;;;;;;;21.13;19.00;;;;;;;15.12;100.00;98595.59;4134960;28;20229;-45
2023/05/09 06:57:25;;;;;;;20.50;18.35;;;;;;;15.22;100.00;98590.88;4109016;28;20211;-45
2023/05/09 06:59:28;;;;;;;19.15;17.45;;;;;;;15.29;100.00;98591.44;4123506;28;20248;-44
2023/05/09 07:01:31;;;;;;;20.70;18.55;;;;;;;15.16;100.00;98592.00;4121680;28;20214;-45
2023/05/09 07:03:33;;;;;;;20.35;18.27;;;;;;;15.33;100.00;98587.06;4107044;28;20265;-44
2023/05/09 07:05:36;;;;;;;19.38;17.73;;;;;;;15.36;100.00;98592.00;4122069;28;20218;-44
2023/05/09 07:07:41;;;;;;;19.23;17.52;;;;;;;15.56;100.00;98586.44;4106931;28;20211;-46
2023/05/09 07:09:44;;;;;;;19.88;17.88;;;;;;;15.56;100.00;98591.94;4125892;28;20230;-46
2023/05/09 07:11:46;;;;;;;20.48;18.67;;;;;;;15.54;100.00;98583.13;4129607;28;20217;-45
2023/05/09 07:13:48;;;;;;;21.05;19.35;;;;;;;15.55;100.00;98590.28;4127416;28;20213;-45
2023/05/09 07:15:51;;;;;;;21.35;19.25;;;;;;;15.59;100.00;98579.53;4128573;28;20230;-45
2023/05/09 07:17:54;;;;;;;19.73;17.95;;;;;;;15.58;100.00;98573.19;4138467;28;20348;-45
2023/05/09 07:19:57;;;;;;;21.63;19.75;;;;;;;15.71;100.00;98575.34;4126670;28;20226;-45
2023/05/09 07:21:59;;;;;;;20.92;19.20;;;;;;;15.61;100.00;98567.13;4120492;28;20583;-45
2023/05/09 07:24:01;;;;;;;20.52;18.50;;;;;;;15.70;100.00;98568.16;4111998;28;20696;-45
2023/05/09 07:26:03;;;;;;;23.60;21.23;;;;;;;15.68;100.00;98556.59;4113242;28;20195;-45
2023/05/09 07:28:11;;;;;;;17.77;16.38;;;;;;;15.82;100.00;98557.66;4128961;28;20205;-45
2023/05/09 07:30:14;;;;;;;18.92;17.20;;;;;;;15.94;100.00;98549.88;4125741;28;20230;-45
2023/05/09 07:32:16;;;;;;;18.02;16.52;;;;;;;16.00;100.00;98554.25;4122457;28;20210;-45
2023/05/09 07:34:19;;;;;;;18.55;17.05;;;;;;;16.03;100.00;98556.44;4121828;28;20297;-45
2023/05/09 07:36:21;;;;;;;17.33;15.85;;;;;;;15.94;100.00;98557.31;4115529;28;20817;-45
2023/05/09 07:38:25;;;;;;;17.23;15.52;;;;;;;16.12;100.00;98552.00;4112051;28;20730;-45
2023/05/09 07:40:32;;;;;;;19.15;15.68;;;;;;;16.27;100.00;98562.94;4128416;28;20256;-44
2023/05/09 07:42:34;;;;;;;14.70;13.55;;;;;;;16.41;100.00;98561.22;4109126;28;20246;-45
2023/05/09 07:44:37;;;;;;;17.08;15.07;;;;;;;16.58;100.00;98560.81;4135852;28;20209;-44
2023/05/09 07:46:40;;;;;;;11.93;11.05;;;;;;;16.54;100.00;98560.56;4102318;28;20210;-45
2023/05/09 07:48:42;;;;;;;8.40;7.80;;;;;;;16.67;100.00;98559.09;4100366;28;20688;-45
2023/05/09 07:50:44;;;;;;;8.40;7.50;;;;;;;16.72;100.00;98554.38;4098561;28;20338;-45
2023/05/09 07:52:46;;;;;;;6.95;6.43;;;;;;;16.80;100.00;98559.28;4120217;28;20217;-45
2023/05/09 07:54:49;;;;;;;5.38;4.90;;;;;;;16.96;100.00;98559.97;4103252;28;20219;-46
2023/05/09 07:56:59;;;;;;;5.40;4.43;;;;;;;16.78;100.00;98549.63;4117597;28;20256;-44
2023/05/09 07:59:02;;;;;;;4.72;4.35;;;;;;;16.91;100.00;98543.44;4112600;23;21342;-45
2023/05/09 08:01:04;;;;;;;3.92;3.63;;;;;;;16.83;100.00;98541.28;4123229;28;20640;-44
2023/05/09 08:03:07;;;;;;;4.25;3.95;;;;;;;16.74;100.00;98535.56;4123473;28;20206;-45
2023/05/09 08:05:10;;;;;;;3.70;3.40;;;;;;;16.92;100.00;98537.63;4105359;28;20226;-46
2023/05/09 08:07:13;;;;;;;3.17;2.92;;;;;;;17.00;100.00;98529.50;4140481;28;20212;-45
2023/05/09 08:09:18;;;;;;;3.97;3.70;;;;;;;17.09;100.00;98535.22;4136967;28;20735;-45
2023/05/09 08:11:21;;;;;;;4.30;4.00;;;;;;;17.21;100.00;98527.38;4116032;28;20210;-44
2023/05/09 08:13:24;;;;;;;4.70;4.30;;;;;;;17.32;100.00;98512.31;4123779;28;20216;-45
2023/05/09 08:15:27;;;;;;;4.00;3.67;;;;;;;17.26;100.00;98514.28;4104491;28;20215;-44
2023/05/09 08:17:29;;;;;;;5.78;3.78;;;;;;;17.39;100.00;98512.81;4120204;28;20617;-44
2023/05/09 08:19:31;;;;;;;3.28;2.78;;;;;;;17.24;100.00;98515.69;4107260;28;20692;-45
2023/05/09 08:21:34;;;;;;;3.90;3.40;;;;;;;17.38;100.00;98511.19;4125494;28;20206;-44
2023/05/09 08:23:36;;;;;;;4.07;3.28;;;;;;;17.40;100.00;98503.41;4123185;28;20593;-44
2023/05/09 08:25:40;;;;;;;3.80;3.13;;;;;;;17.76;100.00;98507.38;4140976;28;20573;-45
2023/05/09 08:27:43;;;;;;;3.08;2.88;;;;;;;17.83;100.00;98507.84;4125006;28;20234;-45
2023/05/09 08:29:45;;;;;;;5.13;4.38;;;;;;;17.78;100.00;98505.16;4107987;28;20285;-45
2023/05/09 08:31:48;;;;;;;3.42;2.95;;;;;;;17.65;100.00;98494.81;4123617;28;20677;-44
2023/05/09 08:33:52;;;;;;;3.38;3.08;;;;;;;17.74;100.00;98493.00;4107081;28;20246;-45
2023/05/09 08:35:55;;;;;;;5.40;3.95;;;;;;;17.97;100.00;98490.19;4117765;28;20723;-45
2023/05/09 08:37:57;;;;;;;2.70;2.50;;;;;;;17.89;99.38;98490.88;4138872;28;20695;-45
2023/05/09 08:39:59;;;;;;;2.42;2.30;;;;;;;17.70;99.62;98486.41;4108185;28;20584;-45
2023/05/09 08:42:01;;;;;;;2.35;2.10;;;;;;;17.65;98.63;98480.97;4106343;28;20276;-44
2023/05/09 08:44:03;;;;;;;2.67;2.47;;;;;;;17.95;98.25;98483.31;4117508;28;20245;-45
2023/05/09 08:46:07;;;;;;;3.80;3.40;;;;;;;18.29;98.24;98478.38;4121666;28;20205;-45
2023/05/09 08:48:09;;;;;;;2.95;2.22;;;;;;;18.65;97.55;98476.72;4119414;28;20281;-45
2023/05/09 08:50:13;;;;;;;8.32;2.38;;;;;;;18.67;93.79;98472.53;4121255;28;20268;-45
2023/05/09 08:52:16;;;;;;;2.95;2.72;;;;;;;18.68;92.98;98465.00;4119350;28;20347;-44
2023/05/09 08:54:18;;;;;;;2.35;2.10;;;;;;;18.42;92.08;98472.09;4122813;28;20301;-44
2023/05/09 08:56:23;;;;;;;2.72;2.53;;;;;;;18.61;93.34;98465.41;4122442;28;20321;-45
2023/05/09 08:58:31;;;;;;;3.20;2.97;;;;;;;18.39;92.47;98467.97;4106277;28;20375;-44
2023/05/09 09:00:41;;;;;;;2.88;2.60;;;;;;;18.43;93.66;98473.75;4121902;28;20312;-44
2023/05/09 09:02:51;;;;;;;6.28;2.70;;;;;;;18.25;93.21;98466.25;4092030;28;20673;-45
2023/05/09 09:04:57;;;;;;;2.50;2.30;;;;;;;18.28;94.55;98460.09;4137683;28;22228;-45
2023/05/09 09:07:00;;;;;;;3.08;2.70;;;;;;;18.50;94.65;98452.84;4140149;28;21158;-45
2023/05/09 09:09:07;;;;;;;2.85;2.58;;;;;;;18.52;94.33;98460.88;4142927;28;20679;-45
2023/05/09 09:11:18;;;;;;;2.60;2.40;;;;;;;18.52;93.53;98460.88;4125682;28;20214;-45
2023/05/09 09:13:25;;;;;;;1093.22;101.80;;;;;;;18.76;93.96;98461.53;4124592;28;20206;-45
2023/05/09 09:15:33;;;;;;;26.50;4.97;;;;;;;18.74;91.67;98447.16;4110458;28;20665;-46
2023/05/09 09:17:42;;;;;;;70.82;7.32;;;;;;;18.99;93.97;98449.47;4106720;28;20688;-45
2023/05/09 09:19:58;;;;;;;29.02;4.32;;;;;;;19.03;91.16;98450.50;4122026;28;20229;-45
2023/05/09 09:22:06;;;;;;;5.18;2.40;;;;;;;18.79;90.01;98433.22;4139038;28;21081;-46
2023/05/09 09:24:14;;;;;;;6.63;2.38;;;;;;;18.59;91.24;98433.56;4140549;28;20263;-45